createdAt,value
2019-04-09T00:00:05.069Z,13.72
2019-04-09T00:00:32.196Z,13.74
2019-04-09T00:01:01.760Z,13.65
2019-04-09T00:01:29.348Z,13.67
2019-04-09T00:01:57.159Z,13.65
2019-04-09T00:02:26.012Z,13.7
2019-04-09T00:02:54.299Z,13.62
2019-04-09T00:03:21.613Z,13.52
2019-04-09T00:03:49.433Z,13.49
2019-04-09T00:04:17.006Z,13.54
2019-04-09T00:04:45.744Z,13.54
2019-04-09T00:05:12.399Z,13.5
2019-04-09T00:05:39.884Z,13.57
2019-04-09T00:06:07.353Z,13.49
2019-04-09T00:06:34.744Z,13.53
2019-04-09T00:07:02.432Z,13.5
2019-04-09T00:07:29.420Z,13.57
2019-04-09T00:08:03.115Z,13.49
2019-04-09T00:08:26.199Z,13.47
2019-04-09T00:08:54.249Z,13.52
2019-04-09T00:09:22.955Z,13.52
2019-04-09T00:09:49.439Z,13.54
2019-04-09T00:10:16.497Z,13.49
2019-04-09T00:10:43.290Z,13.47
2019-04-09T00:11:11.377Z,13.46
2019-04-09T00:11:38.715Z,13.28
2019-04-09T00:12:06.874Z,13.23
2019-04-09T00:12:34.645Z,13.23
2019-04-09T00:13:01.811Z,13.3
2019-04-09T00:13:31.811Z,13.38
2019-04-09T00:13:59.501Z,13.41
2019-04-09T00:14:27.185Z,13.44
2019-04-09T00:14:54.072Z,13.37
2019-04-09T00:15:23.271Z,13.39
2019-04-09T00:15:51.170Z,13.35
2019-04-09T00:16:18.890Z,13.37
2019-04-09T00:16:46.353Z,13.41
2019-04-09T00:17:13.334Z,13.3
2019-04-09T00:17:42.238Z,13.23
2019-04-09T00:18:09.030Z,13.16
2019-04-09T00:18:37.939Z,13.13
2019-04-09T00:19:04.619Z,13.19
2019-04-09T00:19:31.455Z,13.12
2019-04-09T00:19:58.218Z,13.11
2019-04-09T00:20:25.854Z,13.11
2019-04-09T00:20:53.426Z,13
2019-04-09T00:21:21.989Z,12.98
2019-04-09T00:21:49.875Z,12.97
2019-04-09T00:22:16.651Z,13.09
2019-04-09T00:22:43.462Z,12.98
2019-04-09T00:23:10.190Z,13.01
2019-04-09T00:23:38.357Z,12.97
2019-04-09T00:24:05.094Z,12.97
2019-04-09T00:24:33.967Z,12.91
2019-04-09T00:25:00.630Z,12.98
2019-04-09T00:25:28.562Z,13.03
2019-04-09T00:25:57.239Z,13.03
2019-04-09T00:26:24.089Z,13.09
2019-04-09T00:26:55.618Z,13.09
2019-04-09T00:27:22.405Z,13
2019-04-09T00:27:50.823Z,12.97
2019-04-09T00:28:18.037Z,12.95
2019-04-09T00:28:46.474Z,12.97
2019-04-09T00:29:14.243Z,12.87
2019-04-09T00:29:41.898Z,12.97
2019-04-09T00:30:10.156Z,12.95
2019-04-09T00:30:38.195Z,13.01
2019-04-09T00:31:05.309Z,13
2019-04-09T00:31:32.175Z,12.97
2019-04-09T00:31:59.820Z,13.08
2019-04-09T00:32:26.915Z,12.97
2019-04-09T00:32:54.403Z,12.97
2019-04-09T00:33:21.932Z,12.93
2019-04-09T00:33:48.685Z,12.94
2019-04-09T00:34:15.795Z,12.91
2019-04-09T00:34:44.211Z,12.83
2019-04-09T00:35:11.277Z,12.91
2019-04-09T00:35:39.649Z,12.8
2019-04-09T00:36:07.394Z,12.73
2019-04-09T00:36:34.244Z,12.73
2019-04-09T00:37:01.903Z,12.68
2019-04-09T00:37:29.324Z,12.58
2019-04-09T00:37:56.122Z,12.61
2019-04-09T00:38:22.952Z,12.7
2019-04-09T00:38:49.761Z,12.68
2019-04-09T00:39:16.466Z,12.7
2019-04-09T00:39:43.238Z,12.67
2019-04-09T00:40:09.987Z,12.7
2019-04-09T00:40:37.892Z,12.73
2019-04-09T00:41:04.780Z,12.75
2019-04-09T00:41:32.733Z,12.68
2019-04-09T00:42:00.435Z,12.73
2019-04-09T00:42:27.555Z,12.7
2019-04-09T00:42:56.129Z,12.65
2019-04-09T00:43:22.981Z,12.68
2019-04-09T00:43:49.475Z,12.6
2019-04-09T00:44:17.507Z,12.72
2019-04-09T00:44:45.215Z,12.67
2019-04-09T00:45:12.227Z,12.64
2019-04-09T00:45:39.714Z,12.78
2019-04-09T00:46:07.197Z,12.72
2019-04-09T00:46:34.077Z,12.68
2019-04-09T00:47:03.685Z,12.7
2019-04-09T00:47:30.554Z,12.72
2019-04-09T00:47:57.487Z,12.76
2019-04-09T00:48:24.167Z,12.67
2019-04-09T00:48:50.698Z,12.75
2019-04-09T00:49:17.297Z,12.61
2019-04-09T00:49:44.278Z,12.62
2019-04-09T00:50:11.583Z,12.58
2019-04-09T00:50:39.431Z,12.6
2019-04-09T00:51:06.338Z,12.68
2019-04-09T00:51:33.941Z,12.58
2019-04-09T00:52:01.883Z,12.61
2019-04-09T00:52:28.768Z,12.58
2019-04-09T00:52:56.224Z,12.68
2019-04-09T00:53:24.004Z,12.62
2019-04-09T00:53:51.098Z,12.55
2019-04-09T00:54:18.119Z,12.6
2019-04-09T00:54:45.817Z,12.67
2019-04-09T00:55:12.862Z,12.75
2019-04-09T00:55:41.546Z,12.7
2019-04-09T00:56:09.030Z,12.72
2019-04-09T00:56:34.521Z,12.7
2019-04-09T00:57:07.386Z,12.78
2019-04-09T00:57:29.810Z,12.65
2019-04-09T00:57:56.863Z,12.76
2019-04-09T00:58:26.040Z,12.73
2019-04-09T00:58:53.904Z,12.61
2019-04-09T00:59:21.826Z,12.67
2019-04-09T00:59:50.733Z,12.64
2019-04-09T01:00:18.442Z,12.57
2019-04-09T01:00:47.313Z,12.62
2019-04-09T01:01:15.056Z,12.75
2019-04-09T01:01:42.699Z,12.62
2019-04-09T01:02:09.547Z,12.61
2019-04-09T01:02:37.747Z,12.67
2019-04-09T01:03:05.623Z,12.62
2019-04-09T01:03:32.409Z,12.61
2019-04-09T01:03:59.497Z,12.6
2019-04-09T01:04:28.032Z,12.58
2019-04-09T01:04:54.780Z,12.49
2019-04-09T01:05:22.560Z,12.45
2019-04-09T01:05:49.754Z,12.58
2019-04-09T01:06:17.179Z,12.45
2019-04-09T01:06:43.891Z,12.5
2019-04-09T01:07:12.365Z,12.54
2019-04-09T01:07:39.488Z,12.53
2019-04-09T01:08:06.634Z,12.47
2019-04-09T01:08:33.667Z,12.55
2019-04-09T01:09:02.623Z,12.6
2019-04-09T01:09:30.253Z,12.57
2019-04-09T01:09:57.963Z,12.65
2019-04-09T01:10:24.849Z,12.6
2019-04-09T01:10:52.238Z,12.55
2019-04-09T01:11:19.296Z,12.61
2019-04-09T01:11:47.892Z,12.64
2019-04-09T01:12:16.189Z,12.5
2019-04-09T01:12:42.990Z,12.7
2019-04-09T01:13:11.478Z,12.49
2019-04-09T01:13:40.560Z,12.49
2019-04-09T01:14:07.058Z,12.46
2019-04-09T01:14:35.754Z,12.36
2019-04-09T01:15:02.596Z,12.28
2019-04-09T01:15:29.761Z,12.4
2019-04-09T01:15:58.218Z,12.37
2019-04-09T01:16:26.202Z,12.37
2019-04-09T01:16:56.306Z,12.43
2019-04-09T01:17:23.110Z,12.39
2019-04-09T01:17:52.049Z,12.31
2019-04-09T01:18:19.165Z,12.36
2019-04-09T01:18:46.062Z,12.27
2019-04-09T01:19:17.546Z,12.24
2019-04-09T01:19:42.388Z,12.31
2019-04-09T01:20:11.009Z,12.25
2019-04-09T01:20:38.061Z,12.2
2019-04-09T01:21:06.839Z,12.21
2019-04-09T01:21:34.926Z,12.18
2019-04-09T01:22:02.343Z,12.28
2019-04-09T01:22:29.992Z,12.31
2019-04-09T01:22:57.530Z,12.32
2019-04-09T01:23:24.345Z,12.37
2019-04-09T01:23:52.059Z,12.4
2019-04-09T01:24:27.465Z,12.37
2019-04-09T01:24:49.909Z,12.37
2019-04-09T01:25:17.525Z,12.27
2019-04-09T01:25:44.858Z,12.28
2019-04-09T01:26:12.193Z,12.27
2019-04-09T01:26:41.449Z,12.36
2019-04-09T01:27:14.098Z,12.28
2019-04-09T01:27:37.416Z,12.28
2019-04-09T01:28:06.206Z,12.22
2019-04-09T01:28:33.755Z,12.17
2019-04-09T01:29:01.906Z,12.27
2019-04-09T01:29:29.975Z,12.18
2019-04-09T01:29:57.400Z,12.24
2019-04-09T01:30:26.225Z,12.17
2019-04-09T01:30:54.718Z,12.24
2019-04-09T01:31:23.457Z,12.21
2019-04-09T01:31:52.369Z,12.21
2019-04-09T01:32:19.304Z,12.21
2019-04-09T01:32:47.304Z,12.09
2019-04-09T01:33:14.671Z,12.06
2019-04-09T01:33:41.998Z,12.02
2019-04-09T01:34:09.750Z,12
2019-04-09T01:34:36.503Z,12.03
2019-04-09T01:35:03.457Z,12.07
2019-04-09T01:35:30.858Z,12.06
2019-04-09T01:35:57.753Z,12.09
2019-04-09T01:36:25.438Z,12.07
2019-04-09T01:36:52.227Z,12.09
2019-04-09T01:37:18.341Z,12.04
2019-04-09T01:37:45.669Z,11.91
2019-04-09T01:38:12.390Z,11.91
2019-04-09T01:38:39.634Z,11.94
2019-04-09T01:39:07.472Z,11.91
2019-04-09T01:39:34.221Z,11.91
2019-04-09T01:40:01.074Z,11.94
2019-04-09T01:40:29.864Z,12
2019-04-09T01:40:56.694Z,11.97
2019-04-09T01:41:23.444Z,11.99
2019-04-09T01:41:50.175Z,12.02
2019-04-09T01:42:16.992Z,12.1
2019-04-09T01:42:43.776Z,12.13
2019-04-09T01:43:11.365Z,12.09
2019-04-09T01:43:38.757Z,12.13
2019-04-09T01:44:07.423Z,12.09
2019-04-09T01:44:36.960Z,12.13
2019-04-09T01:45:03.816Z,12.1
2019-04-09T01:45:30.921Z,12.06
2019-04-09T01:45:57.851Z,12.07
2019-04-09T01:46:24.563Z,12.13
2019-04-09T01:46:51.334Z,12.1
2019-04-09T01:47:19.044Z,12.09
2019-04-09T01:47:47.086Z,12.15
2019-04-09T01:48:15.641Z,12.02
2019-04-09T01:48:42.708Z,12.13
2019-04-09T01:49:09.476Z,11.95
2019-04-09T01:49:36.240Z,12.1
2019-04-09T01:50:04.459Z,12.03
2019-04-09T01:50:31.027Z,12.07
2019-04-09T01:50:59.060Z,11.97
2019-04-09T01:51:26.876Z,11.91
2019-04-09T01:51:53.648Z,11.95
2019-04-09T01:52:20.257Z,11.9
2019-04-09T01:52:48.958Z,11.81
2019-04-09T01:53:15.946Z,11.75
2019-04-09T01:53:42.744Z,11.84
2019-04-09T01:54:09.392Z,11.84
2019-04-09T01:54:36.184Z,11.81
2019-04-09T01:55:02.545Z,11.86
2019-04-09T01:55:30.352Z,11.81
2019-04-09T01:55:57.993Z,11.81
2019-04-09T01:56:24.874Z,11.84
2019-04-09T01:56:53.618Z,11.81
2019-04-09T01:57:27.020Z,11.91
2019-04-09T01:57:50.990Z,11.94
2019-04-09T01:58:17.875Z,11.83
2019-04-09T01:58:45.120Z,11.81
2019-04-09T01:59:12.352Z,11.87
2019-04-09T01:59:39.720Z,11.8
2019-04-09T02:00:07.473Z,11.75
2019-04-09T02:00:34.178Z,11.87
2019-04-09T02:01:02.889Z,11.8
2019-04-09T02:01:29.927Z,11.77
2019-04-09T02:01:57.695Z,11.68
2019-04-09T02:02:24.655Z,11.54
2019-04-09T02:02:51.855Z,11.57
2019-04-09T02:03:19.184Z,11.57
2019-04-09T02:03:46.084Z,11.5
2019-04-09T02:04:13.161Z,11.57
2019-04-09T02:04:41.135Z,11.45
2019-04-09T02:05:08.959Z,11.36
2019-04-09T02:05:36.845Z,11.44
2019-04-09T02:06:04.598Z,11.36
2019-04-09T02:06:31.142Z,11.35
2019-04-09T02:06:57.979Z,11.45
2019-04-09T02:07:24.821Z,11.51
2019-04-09T02:07:51.576Z,11.52
2019-04-09T02:08:19.816Z,11.47
2019-04-09T02:08:46.813Z,11.51
2019-04-09T02:09:15.396Z,11.59
2019-04-09T02:09:41.943Z,11.57
2019-04-09T02:10:10.896Z,11.6
2019-04-09T02:10:38.933Z,11.62
2019-04-09T02:11:07.785Z,11.55
2019-04-09T02:11:35.071Z,11.52
2019-04-09T02:12:03.922Z,11.62
2019-04-09T02:12:30.819Z,11.54
2019-04-09T02:12:59.397Z,11.65
2019-04-09T02:13:27.357Z,11.51
2019-04-09T02:13:53.491Z,11.57
2019-04-09T02:14:19.699Z,11.59
2019-04-09T02:14:47.870Z,11.48
2019-04-09T02:15:15.807Z,11.51
2019-04-09T02:15:43.522Z,11.48
2019-04-09T02:16:10.621Z,11.55
2019-04-09T02:16:38.034Z,11.57
2019-04-09T02:17:04.236Z,11.51
2019-04-09T02:17:32.655Z,11.45
2019-04-09T02:18:00.468Z,11.47
2019-04-09T02:18:28.176Z,11.5
2019-04-09T02:18:55.299Z,11.47
2019-04-09T02:19:21.817Z,11.41
2019-04-09T02:19:50.076Z,11.37
2019-04-09T02:20:17.197Z,11.3
2019-04-09T02:20:45.689Z,11.25
2019-04-09T02:21:13.448Z,11.27
2019-04-09T02:21:41.193Z,11.32
2019-04-09T02:22:08.103Z,11.26
2019-04-09T02:22:34.848Z,11.26
2019-04-09T02:23:01.660Z,11.22
2019-04-09T02:23:28.866Z,11.19
2019-04-09T02:23:56.638Z,11.23
2019-04-09T02:24:24.394Z,11.22
2019-04-09T02:24:50.893Z,11.27
2019-04-09T02:25:18.687Z,11.25
2019-04-09T02:25:46.251Z,11.3
2019-04-09T02:26:12.737Z,11.29
2019-04-09T02:26:40.067Z,11.27
2019-04-09T02:27:08.200Z,11.29
2019-04-09T02:27:41.671Z,11.23
2019-04-09T02:28:03.221Z,11.17
2019-04-09T02:28:30.814Z,11.15
2019-04-09T02:28:58.204Z,11.02
2019-04-09T02:29:25.005Z,11.07
2019-04-09T02:29:53.394Z,11.02
2019-04-09T02:30:21.149Z,10.92
2019-04-09T02:30:49.993Z,10.96
2019-04-09T02:31:20.145Z,11.02
2019-04-09T02:31:48.080Z,10.99
2019-04-09T02:32:17.963Z,11
2019-04-09T02:32:46.522Z,10.96
2019-04-09T02:33:15.449Z,11
2019-04-09T02:33:43.468Z,11.02
2019-04-09T02:34:12.877Z,11.1
2019-04-09T02:34:40.547Z,11.08
2019-04-09T02:35:08.704Z,11.04
2019-04-09T02:35:39.048Z,11.04
2019-04-09T02:36:06.215Z,10.94
2019-04-09T02:36:38.685Z,11
2019-04-09T02:37:07.210Z,11.02
2019-04-09T02:37:34.639Z,11
2019-04-09T02:38:03.839Z,11.04
2019-04-09T02:38:29.970Z,11.07
2019-04-09T02:38:58.518Z,11.07
2019-04-09T02:39:27.098Z,11.04
2019-04-09T02:39:54.047Z,11.04
2019-04-09T02:40:20.928Z,10.99
2019-04-09T02:40:48.568Z,11.04
2019-04-09T02:41:15.392Z,10.87
2019-04-09T02:41:42.706Z,10.89
2019-04-09T02:42:09.349Z,10.87
2019-04-09T02:42:37.333Z,10.97
2019-04-09T02:43:04.933Z,10.89
2019-04-09T02:43:32.638Z,10.96
2019-04-09T02:44:00.554Z,10.94
2019-04-09T02:44:28.402Z,10.99
2019-04-09T02:44:55.634Z,10.94
2019-04-09T02:45:22.448Z,11
2019-04-09T02:45:49.150Z,11
2019-04-09T02:46:15.471Z,10.9
2019-04-09T02:46:42.799Z,10.92
2019-04-09T02:47:09.909Z,10.87
2019-04-09T02:47:37.146Z,10.81
2019-04-09T02:48:03.894Z,10.76
2019-04-09T02:48:31.496Z,10.82
2019-04-09T02:48:59.458Z,10.71
2019-04-09T02:49:27.063Z,10.75
2019-04-09T02:49:53.937Z,10.81
2019-04-09T02:50:21.231Z,10.81
2019-04-09T02:50:48.963Z,10.78
2019-04-09T02:51:15.893Z,10.82
2019-04-09T02:51:44.539Z,10.87
2019-04-09T02:52:11.326Z,10.89
2019-04-09T02:52:38.900Z,10.78
2019-04-09T02:53:05.754Z,10.68
2019-04-09T02:53:32.958Z,10.67
2019-04-09T02:54:01.114Z,10.68
2019-04-09T02:54:29.309Z,10.61
2019-04-09T02:54:58.058Z,10.67
2019-04-09T02:55:24.955Z,10.71
2019-04-09T02:55:53.638Z,10.67
2019-04-09T02:56:20.462Z,10.68
2019-04-09T02:56:47.264Z,10.64
2019-04-09T02:57:14.877Z,10.72
2019-04-09T02:57:50.016Z,10.63
2019-04-09T02:58:12.775Z,10.68
2019-04-09T02:58:39.957Z,10.64
2019-04-09T02:59:07.563Z,10.61
2019-04-09T02:59:34.472Z,10.61
2019-04-09T03:00:02.054Z,10.67
2019-04-09T03:00:30.001Z,10.59
2019-04-09T03:00:58.839Z,10.53
2019-04-09T03:01:24.514Z,10.46
2019-04-09T03:01:51.229Z,10.56
2019-04-09T03:02:19.443Z,10.51
2019-04-09T03:02:47.290Z,10.41
2019-04-09T03:03:14.953Z,10.59
2019-04-09T03:03:42.026Z,10.49
2019-04-09T03:04:10.487Z,10.46
2019-04-09T03:04:39.501Z,10.57
2019-04-09T03:05:06.359Z,10.41
2019-04-09T03:05:32.886Z,10.4
2019-04-09T03:05:59.606Z,10.4
2019-04-09T03:06:26.418Z,10.37
2019-04-09T03:06:53.705Z,10.57
2019-04-09T03:07:21.227Z,10.4
2019-04-09T03:07:48.217Z,10.42
2019-04-09T03:08:15.831Z,10.41
2019-04-09T03:08:43.691Z,10.42
2019-04-09T03:09:09.169Z,10.41
2019-04-09T03:09:36.904Z,10.4
2019-04-09T03:10:05.210Z,10.46
2019-04-09T03:10:32.487Z,10.4
2019-04-09T03:11:00.287Z,10.46
2019-04-09T03:11:28.104Z,10.41
2019-04-09T03:11:55.109Z,10.48
2019-04-09T03:12:21.261Z,10.46
2019-04-09T03:12:49.640Z,10.46
2019-04-09T03:13:15.154Z,10.42
2019-04-09T03:13:43.299Z,10.51
2019-04-09T03:14:11.008Z,10.48
2019-04-09T03:14:38.259Z,10.53
2019-04-09T03:15:05.583Z,10.6
2019-04-09T03:15:33.009Z,10.59
2019-04-09T03:16:00.581Z,10.54
2019-04-09T03:16:27.897Z,10.53
2019-04-09T03:16:54.971Z,10.51
2019-04-09T03:17:23.539Z,10.51
2019-04-09T03:17:50.559Z,10.41
2019-04-09T03:18:18.314Z,10.44
2019-04-09T03:18:46.039Z,10.38
2019-04-09T03:19:12.265Z,10.46
2019-04-09T03:19:38.842Z,10.49
2019-04-09T03:20:07.813Z,10.4
2019-04-09T03:20:34.886Z,10.41
2019-04-09T03:21:03.400Z,10.37
2019-04-09T03:21:30.125Z,10.35
2019-04-09T03:21:57.711Z,10.28
2019-04-09T03:22:23.872Z,10.42
2019-04-09T03:22:51.764Z,10.41
2019-04-09T03:23:19.159Z,10.3
2019-04-09T03:23:46.861Z,10.37
2019-04-09T03:24:13.058Z,10.35
2019-04-09T03:24:41.093Z,10.34
2019-04-09T03:25:09.923Z,10.31
2019-04-09T03:25:36.534Z,10.35
2019-04-09T03:26:04.384Z,10.34
2019-04-09T03:26:31.058Z,10.31
2019-04-09T03:26:59.169Z,10.31
2019-04-09T03:27:26.526Z,10.34
2019-04-09T03:28:01.643Z,10.34
2019-04-09T03:28:21.627Z,10.33
2019-04-09T03:28:49.244Z,10.33
2019-04-09T03:29:16.374Z,10.28
2019-04-09T03:29:44.604Z,10.28
2019-04-09T03:30:12.632Z,10.33
2019-04-09T03:30:39.072Z,10.23
2019-04-09T03:31:06.854Z,10.28
2019-04-09T03:31:37.177Z,10.28
2019-04-09T03:32:07.404Z,10.15
2019-04-09T03:32:37.920Z,10.17
2019-04-09T03:33:07.208Z,10.22
2019-04-09T03:33:37.998Z,10.33
2019-04-09T03:34:09.333Z,10.15
2019-04-09T03:34:37.387Z,10.22
2019-04-09T03:35:05.012Z,10.3
2019-04-09T03:35:32.121Z,10.19
2019-04-09T03:35:58.485Z,10.31
2019-04-09T03:36:27.318Z,10.28
2019-04-09T03:36:55.050Z,10.25
2019-04-09T03:37:21.985Z,10.19
2019-04-09T03:37:49.548Z,10.17
2019-04-09T03:38:16.489Z,10.16
2019-04-09T03:38:43.635Z,10.15
2019-04-09T03:39:11.412Z,10.13
2019-04-09T03:39:38.531Z,10.17
2019-04-09T03:40:06.942Z,10.19
2019-04-09T03:40:32.561Z,10.28
2019-04-09T03:40:59.154Z,10.13
2019-04-09T03:41:27.059Z,10.34
2019-04-09T03:41:55.233Z,10.28
2019-04-09T03:42:22.624Z,10.19
2019-04-09T03:42:50.084Z,10.13
2019-04-09T03:43:18.798Z,10.15
2019-04-09T03:43:46.902Z,10.16
2019-04-09T03:44:13.967Z,10.3
2019-04-09T03:44:41.658Z,10.25
2019-04-09T03:45:08.645Z,10.3
2019-04-09T03:45:36.183Z,10.2
2019-04-09T03:46:03.790Z,10.25
2019-04-09T03:46:32.096Z,10.25
2019-04-09T03:46:58.295Z,10.3
2019-04-09T03:47:25.825Z,10.26
2019-04-09T03:47:52.940Z,10.26
2019-04-09T03:48:20.592Z,10.3
2019-04-09T03:48:48.841Z,10.19
2019-04-09T03:49:16.934Z,10.19
2019-04-09T03:49:43.505Z,10.26
2019-04-09T03:50:11.245Z,10.25
2019-04-09T03:50:38.145Z,10.17
2019-04-09T03:51:05.528Z,9.92
2019-04-09T03:51:33.172Z,9.92
2019-04-09T03:52:00.261Z,9.99
2019-04-09T03:52:27.128Z,10.04
2019-04-09T03:52:54.719Z,10.02
2019-04-09T03:53:21.592Z,10.02
2019-04-09T03:53:48.638Z,10.05
2019-04-09T03:54:15.570Z,10.1
2019-04-09T03:54:43.283Z,10.09
2019-04-09T03:55:10.150Z,10.01
2019-04-09T03:55:37.530Z,10.02
2019-04-09T03:56:05.399Z,9.99
2019-04-09T03:56:32.301Z,9.97
2019-04-09T03:57:00.142Z,9.92
2019-04-09T03:57:27.772Z,10.02
2019-04-09T03:57:55.799Z,9.94
2019-04-09T03:58:25.873Z,9.98
2019-04-09T03:58:52.497Z,9.94
2019-04-09T03:59:19.167Z,9.94
2019-04-09T03:59:45.848Z,9.95
2019-04-09T04:00:14.376Z,9.99
2019-04-09T04:00:41.217Z,9.83
2019-04-09T04:01:07.814Z,9.94
2019-04-09T04:01:34.915Z,9.97
2019-04-09T04:02:01.709Z,9.98
2019-04-09T04:02:28.647Z,9.97
2019-04-09T04:02:56.846Z,9.87
2019-04-09T04:03:24.015Z,9.82
2019-04-09T04:03:51.000Z,9.92
2019-04-09T04:04:18.274Z,9.79
2019-04-09T04:04:46.097Z,9.76
2019-04-09T04:05:13.799Z,9.72
2019-04-09T04:05:40.757Z,9.66
2019-04-09T04:06:09.319Z,9.86
2019-04-09T04:06:38.471Z,9.87
2019-04-09T04:07:06.677Z,9.8
2019-04-09T04:07:34.034Z,9.73
2019-04-09T04:08:01.482Z,9.8
2019-04-09T04:08:29.244Z,9.83
2019-04-09T04:08:56.361Z,9.79
2019-04-09T04:09:23.837Z,9.8
2019-04-09T04:09:51.643Z,9.69
2019-04-09T04:10:19.607Z,9.69
2019-04-09T04:10:47.397Z,9.72
2019-04-09T04:11:14.696Z,9.65
2019-04-09T04:11:42.148Z,9.69
2019-04-09T04:12:09.784Z,9.65
2019-04-09T04:12:37.448Z,9.64
2019-04-09T04:13:04.125Z,9.65
2019-04-09T04:13:31.017Z,9.61
2019-04-09T04:13:58.774Z,9.64
2019-04-09T04:14:25.585Z,9.61
2019-04-09T04:14:53.617Z,9.66
2019-04-09T04:15:21.855Z,9.56
2019-04-09T04:15:49.208Z,9.62
2019-04-09T04:16:16.993Z,9.62
2019-04-09T04:16:44.491Z,9.68
2019-04-09T04:17:11.207Z,9.62
2019-04-09T04:17:38.344Z,9.58
2019-04-09T04:18:07.054Z,9.58
2019-04-09T04:18:34.020Z,9.56
2019-04-09T04:19:01.776Z,9.65
2019-04-09T04:19:28.757Z,9.58
2019-04-09T04:19:55.997Z,9.51
2019-04-09T04:20:23.271Z,9.62
2019-04-09T04:20:51.010Z,9.62
2019-04-09T04:21:17.964Z,9.56
2019-04-09T04:21:46.149Z,9.62
2019-04-09T04:22:15.031Z,9.61
2019-04-09T04:22:43.864Z,9.64
2019-04-09T04:23:10.795Z,9.55
2019-04-09T04:23:37.592Z,9.62
2019-04-09T04:24:05.793Z,9.58
2019-04-09T04:24:33.221Z,9.51
2019-04-09T04:25:01.658Z,9.54
2019-04-09T04:25:28.756Z,9.51
2019-04-09T04:25:57.471Z,9.58
2019-04-09T04:26:24.537Z,9.59
2019-04-09T04:26:50.917Z,9.55
2019-04-09T04:27:18.631Z,9.56
2019-04-09T04:27:46.400Z,9.62
2019-04-09T04:28:24.120Z,9.61
2019-04-09T04:28:43.593Z,9.66
2019-04-09T04:29:12.746Z,9.61
2019-04-09T04:29:39.593Z,9.61
2019-04-09T04:30:06.363Z,9.58
2019-04-09T04:30:33.282Z,9.54
2019-04-09T04:31:01.077Z,9.48
2019-04-09T04:31:28.043Z,9.51
2019-04-09T04:31:55.816Z,9.41
2019-04-09T04:32:25.043Z,9.43
2019-04-09T04:32:51.893Z,9.44
2019-04-09T04:33:19.726Z,9.36
2019-04-09T04:33:47.723Z,9.29
2019-04-09T04:34:16.578Z,9.25
2019-04-09T04:34:43.597Z,9.29
2019-04-09T04:35:10.236Z,9.31
2019-04-09T04:35:37.012Z,9.34
2019-04-09T04:36:03.709Z,9.37
2019-04-09T04:36:30.941Z,9.28
2019-04-09T04:36:58.231Z,9.25
2019-04-09T04:37:25.686Z,9.25
2019-04-09T04:37:52.602Z,9.25
2019-04-09T04:38:19.494Z,9.25
2019-04-09T04:38:45.741Z,9.29
2019-04-09T04:39:12.348Z,9.22
2019-04-09T04:39:39.262Z,9.39
2019-04-09T04:40:08.853Z,9.37
2019-04-09T04:40:36.945Z,9.32
2019-04-09T04:41:03.990Z,9.31
2019-04-09T04:41:31.113Z,9.34
2019-04-09T04:41:58.424Z,9.37
2019-04-09T04:42:25.568Z,9.4
2019-04-09T04:42:52.589Z,9.41
2019-04-09T04:43:19.015Z,9.34
2019-04-09T04:43:47.738Z,9.36
2019-04-09T04:44:16.481Z,9.32
2019-04-09T04:44:44.659Z,9.44
2019-04-09T04:45:11.551Z,9.29
2019-04-09T04:45:39.094Z,9.32
2019-04-09T04:46:05.552Z,9.34
2019-04-09T04:46:33.516Z,9.41
2019-04-09T04:47:02.107Z,9.39
2019-04-09T04:47:30.076Z,9.36
2019-04-09T04:47:57.047Z,9.32
2019-04-09T04:48:24.733Z,9.31
2019-04-09T04:48:51.960Z,9.39
2019-04-09T04:49:19.165Z,9.34
2019-04-09T04:49:46.816Z,9.29
2019-04-09T04:50:13.646Z,9.26
2019-04-09T04:50:41.750Z,9.23
2019-04-09T04:51:10.420Z,9.14
2019-04-09T04:51:37.052Z,9.18
2019-04-09T04:52:03.709Z,9.22
2019-04-09T04:52:31.036Z,9.25
2019-04-09T04:52:57.922Z,9.18
2019-04-09T04:53:25.035Z,9.08
2019-04-09T04:53:54.074Z,9.14
2019-04-09T04:54:21.715Z,9.11
2019-04-09T04:54:50.312Z,9.04
2019-04-09T04:55:18.935Z,8.85
2019-04-09T04:55:46.327Z,8.88
2019-04-09T04:56:15.241Z,8.85
2019-04-09T04:56:42.801Z,8.85
2019-04-09T04:57:10.323Z,8.87
2019-04-09T04:57:37.821Z,8.84
2019-04-09T04:58:06.231Z,8.91
2019-04-09T04:58:43.384Z,8.81
2019-04-09T04:59:05.288Z,8.94
2019-04-09T04:59:33.930Z,8.74
2019-04-09T05:00:04.627Z,8.74
2019-04-09T05:00:31.158Z,8.71
2019-04-09T05:00:59.422Z,8.76
2019-04-09T05:01:26.200Z,8.76
2019-04-09T05:01:52.765Z,8.79
2019-04-09T05:02:20.324Z,8.79
2019-04-09T05:02:49.235Z,8.82
2019-04-09T05:03:17.008Z,8.76
2019-04-09T05:03:44.516Z,8.91
2019-04-09T05:04:11.285Z,8.88
2019-04-09T05:04:39.829Z,8.74
2019-04-09T05:05:08.579Z,8.63
2019-04-09T05:05:35.223Z,8.61
2019-04-09T05:06:03.133Z,8.6
2019-04-09T05:06:30.267Z,8.61
2019-04-09T05:06:57.049Z,8.61
2019-04-09T05:07:34.804Z,8.71
2019-04-09T05:07:55.252Z,8.78
2019-04-09T05:08:22.291Z,8.74
2019-04-09T05:08:49.854Z,8.71
2019-04-09T05:09:18.478Z,8.76
2019-04-09T05:09:45.238Z,8.67
2019-04-09T05:10:13.765Z,8.73
2019-04-09T05:10:41.251Z,8.71
2019-04-09T05:11:10.325Z,8.7
2019-04-09T05:11:38.945Z,8.81
2019-04-09T05:12:07.622Z,8.84
2019-04-09T05:12:35.080Z,8.74
2019-04-09T05:13:02.658Z,8.76
2019-04-09T05:13:30.944Z,8.7
2019-04-09T05:13:59.565Z,8.63
2019-04-09T05:14:27.730Z,8.74
2019-04-09T05:14:57.116Z,8.79
2019-04-09T05:15:25.684Z,8.73
2019-04-09T05:15:53.074Z,8.74
2019-04-09T05:16:22.039Z,8.71
2019-04-09T05:16:49.805Z,8.7
2019-04-09T05:17:16.783Z,8.76
2019-04-09T05:17:44.886Z,8.61
2019-04-09T05:18:11.896Z,8.63
2019-04-09T05:18:39.637Z,8.64
2019-04-09T05:19:06.291Z,8.52
2019-04-09T05:19:33.750Z,8.49
2019-04-09T05:20:01.159Z,8.53
2019-04-09T05:20:29.072Z,8.48
2019-04-09T05:20:57.643Z,8.49
2019-04-09T05:21:24.815Z,8.41
2019-04-09T05:21:52.455Z,8.44
2019-04-09T05:22:18.906Z,8.36
2019-04-09T05:22:45.063Z,8.48
2019-04-09T05:23:11.646Z,8.38
2019-04-09T05:23:38.999Z,8.49
2019-04-09T05:24:07.917Z,8.44
2019-04-09T05:24:35.491Z,8.49
2019-04-09T05:25:02.928Z,8.44
2019-04-09T05:25:31.382Z,8.42
2019-04-09T05:25:59.840Z,8.45
2019-04-09T05:26:28.075Z,8.49
2019-04-09T05:26:56.082Z,8.48
2019-04-09T05:27:23.179Z,8.58
2019-04-09T05:27:51.646Z,8.52
2019-04-09T05:28:18.536Z,8.38
2019-04-09T05:28:51.479Z,8.51
2019-04-09T05:29:17.569Z,8.55
2019-04-09T05:29:44.280Z,8.64
2019-04-09T05:30:12.777Z,8.66
2019-04-09T05:30:39.410Z,8.64
2019-04-09T05:31:08.395Z,8.61
2019-04-09T05:31:38.764Z,8.58
2019-04-09T05:32:07.544Z,8.52
2019-04-09T05:32:36.042Z,8.58
2019-04-09T05:33:04.616Z,8.63
2019-04-09T05:33:32.295Z,8.66
2019-04-09T05:33:59.486Z,8.63
2019-04-09T05:34:26.487Z,8.6
2019-04-09T05:34:54.607Z,8.63
2019-04-09T05:35:25.157Z,8.41
2019-04-09T05:35:55.712Z,8.55
2019-04-09T05:36:25.531Z,8.61
2019-04-09T05:36:53.042Z,8.51
2019-04-09T05:37:20.643Z,8.53
2019-04-09T05:37:49.286Z,8.58
2019-04-09T05:38:17.579Z,8.63
2019-04-09T05:38:43.991Z,8.61
2019-04-09T05:39:11.271Z,8.61
2019-04-09T05:39:37.475Z,8.69
2019-04-09T05:40:06.508Z,8.63
2019-04-09T05:40:35.629Z,8.63
2019-04-09T05:41:03.560Z,8.66
2019-04-09T05:41:31.694Z,8.64
2019-04-09T05:42:00.465Z,8.69
2019-04-09T05:42:27.697Z,8.61
2019-04-09T05:42:55.357Z,8.61
2019-04-09T05:43:22.502Z,8.6
2019-04-09T05:43:52.113Z,8.71
2019-04-09T05:44:21.869Z,8.69
2019-04-09T05:44:47.477Z,8.61
2019-04-09T05:45:17.783Z,8.64
2019-04-09T05:45:45.382Z,8.66
2019-04-09T05:46:13.118Z,8.63
2019-04-09T05:46:40.726Z,8.71
2019-04-09T05:47:08.129Z,8.76
2019-04-09T05:47:36.803Z,8.73
2019-04-09T05:48:05.273Z,8.88
2019-04-09T05:48:33.763Z,8.76
2019-04-09T05:49:00.776Z,8.74
2019-04-09T05:49:29.779Z,8.74
2019-04-09T05:49:57.307Z,8.74
2019-04-09T05:50:24.558Z,8.71
2019-04-09T05:50:52.263Z,8.73
2019-04-09T05:51:21.339Z,8.64
2019-04-09T05:51:49.230Z,8.64
2019-04-09T05:52:17.331Z,8.74
2019-04-09T05:52:44.998Z,8.79
2019-04-09T05:53:12.125Z,8.69
2019-04-09T05:53:41.062Z,8.74
2019-04-09T05:54:09.354Z,8.6
2019-04-09T05:54:37.705Z,8.61
2019-04-09T05:55:04.284Z,8.64
2019-04-09T05:55:31.892Z,8.64
2019-04-09T05:55:58.849Z,8.63
2019-04-09T05:56:27.739Z,8.67
2019-04-09T05:56:56.458Z,8.78
2019-04-09T05:57:24.165Z,8.71
2019-04-09T05:57:52.898Z,8.81
2019-04-09T05:58:21.420Z,8.73
2019-04-09T05:58:59.974Z,8.74
2019-04-09T05:59:19.383Z,8.61
2019-04-09T05:59:45.740Z,8.52
2019-04-09T06:00:13.214Z,8.58
2019-04-09T06:00:40.639Z,8.6
2019-04-09T06:01:07.248Z,8.67
2019-04-09T06:01:34.562Z,8.69